Time,TemperatureF,DewpointF,PressureIn,WindDirection,WindDirectionDegrees,WindSpeedMPH,WindSpeedGustMPH,Humidity,HourlyPrecipIn,Conditions,Clouds,dailyrainin,SoftwareType,DateUTC
2013-02-05 00:01:00,28.0,19.0,29.96,North,0,0.0,-999.0,68,-99.99,,,-99.99,,2013-02-05 06:01:00,
2013-02-05 00:11:00,28.0,19.0,29.96,North,0,0.0,-999.0,68,-99.99,,,-99.99,,2013-02-05 06:11:00,
2013-02-05 00:21:00,28.0,19.0,29.96,North,0,0.0,-999.0,68,-99.99,,,-99.99,,2013-02-05 06:21:00,
2013-02-05 00:32:00,27.0,19.0,29.96,North,0,0.0,-999.0,73,-99.99,,,-99.99,,2013-02-05 06:32:00,
2013-02-05 00:42:00,27.0,19.0,29.95,SSE,150,3.0,-999.0,73,-99.99,,,-99.99,,2013-02-05 06:42:00,
2013-02-05 00:52:00,27.0,21.0,29.96,SSW,200,3.0,-999.0,79,-99.99,,,-99.99,,2013-02-05 06:52:00,
2013-02-05 01:01:00,27.0,21.0,29.96,North,0,0.0,-999.0,79,-99.99,,,-99.99,,2013-02-05 07:01:00,
2013-02-05 01:11:00,27.0,21.0,29.96,North,0,0.0,-999.0,79,-99.99,,,-99.99,,2013-02-05 07:11:00,
2013-02-05 01:22:00,27.0,21.0,29.96,North,0,0.0,-999.0,79,-99.99,,,-99.99,,2013-02-05 07:22:00,
2013-02-05 01:31:00,27.0,21.0,29.96,North,0,0.0,-999.0,79,-99.99,,,-99.99,,2013-02-05 07:31:00,
2013-02-05 01:41:00,27.0,21.0,29.95,North,0,0.0,-999.0,79,-99.99,,,-99.99,,2013-02-05 07:41:00,
2013-02-05 01:52:00,27.0,21.0,29.96,North,0,0.0,-999.0,79,-99.99,,,-99.99,,2013-02-05 07:52:00,
2013-02-05 02:01:00,27.0,21.0,29.96,North,0,0.0,-999.0,79,-99.99,,,-99.99,,2013-02-05 08:01:00,
2013-02-05 02:11:00,27.0,21.0,29.96,North,0,0.0,-999.0,79,-99.99,,,-99.99,,2013-02-05 08:11:00,
2013-02-05 02:21:00,27.0,21.0,29.96,SSW,210,3.0,-999.0,79,-99.99,,,-99.99,,2013-02-05 08:21:00,
2013-02-05 02:31:00,27.0,21.0,29.95,SSW,200,3.0,-999.0,79,-99.99,,,-99.99,,2013-02-05 08:31:00,
2013-02-05 02:41:00,27.0,21.0,29.96,SSW,200,3.0,-999.0,79,-99.99,,,-99.99,,2013-02-05 08:41:00,
2013-02-05 02:52:00,27.0,21.0,29.94,South,170,3.0,-999.0,79,-99.99,,,-99.99,,2013-02-05 08:52:00,
2013-02-05 03:02:00,27.0,21.0,29.94,SSE,160,3.0,-999.0,79,-99.99,,,-99.99,,2013-02-05 09:02:00,
2013-02-05 03:11:00,27.0,21.0,29.94,SSE,160,3.0,-999.0,79,-99.99,,,-99.99,,2013-02-05 09:11:00,
2013-02-05 03:21:00,27.0,21.0,29.94,North,0,0.0,-999.0,79,-99.99,,,-99.99,,2013-02-05 09:21:00,
2013-02-05 03:32:00,27.0,21.0,29.93,North,0,0.0,-999.0,79,-99.99,,,-99.99,,2013-02-05 09:32:00,
2013-02-05 03:42:00,27.0,21.0,29.92,North,0,0.0,-999.0,79,-99.99,,,-99.99,,2013-02-05 09:42:00,
2013-02-05 03:52:00,27.0,21.0,29.92,South,180,5.0,-999.0,79,-99.99,,,-99.99,,2013-02-05 09:52:00,
2013-02-05 04:02:00,27.0,21.0,29.92,South,180,5.0,-999.0,79,-99.99,,,-99.99,,2013-02-05 10:02:00,
2013-02-05 04:11:00,27.0,21.0,29.92,South,180,5.0,-999.0,79,-99.99,,,-99.99,,2013-02-05 10:11:00,
2013-02-05 04:21:00,27.0,21.0,29.93,South,190,6.0,-999.0,79,-99.99,,,-99.99,,2013-02-05 10:21:00,
2013-02-05 04:32:00,27.0,23.0,29.92,South,180,7.0,-999.0,86,-99.99,,,-99.99,,2013-02-05 10:32:00,
2013-02-05 04:42:00,27.0,21.0,29.93,South,190,8.0,-999.0,79,-99.99,,,-99.99,,2013-02-05 10:42:00,
2013-02-05 04:52:00,27.0,21.0,29.93,South,190,8.0,-999.0,79,-99.99,,,-99.99,,2013-02-05 10:52:00,
2013-02-05 05:01:00,27.0,23.0,29.91,South,180,8.0,-999.0,86,-99.99,,,-99.99,,2013-02-05 11:01:00,
2013-02-05 05:11:00,27.0,23.0,29.91,South,180,8.0,-999.0,86,-99.99,,,-99.99,,2013-02-05 11:11:00,
2013-02-05 05:22:00,27.0,23.0,29.91,South,170,6.0,-999.0,86,-99.99,,,-99.99,,2013-02-05 11:22:00,
2013-02-05 05:32:00,27.0,23.0,29.91,South,170,6.0,-999.0,86,-99.99,,,-99.99,,2013-02-05 11:32:00,
2013-02-05 05:41:00,27.0,23.0,29.90,South,170,6.0,-999.0,86,-99.99,,,-99.99,,2013-02-05 11:41:00,
2013-02-05 05:52:00,27.0,23.0,29.90,South,180,5.0,-999.0,86,-99.99,,,-99.99,,2013-02-05 11:52:00,
2013-02-05 06:01:00,27.0,23.0,29.90,South,180,8.0,-999.0,86,-99.99,,,-99.99,,2013-02-05 12:01:00,
2013-02-05 06:12:00,27.0,23.0,29.90,South,180,8.0,-999.0,86,-99.99,,,-99.99,,2013-02-05 12:12:00,
2013-02-05 06:21:00,27.0,23.0,29.91,South,190,8.0,-999.0,86,-99.99,,,-99.99,,2013-02-05 12:21:00,
2013-02-05 06:32:00,28.0,23.0,29.91,SSW,200,7.0,-999.0,79,-99.99,,,-99.99,,2013-02-05 12:32:00,
2013-02-05 06:42:00,28.0,23.0,29.91,SSW,200,7.0,-999.0,79,-99.99,,,-99.99,,2013-02-05 12:42:00,
2013-02-05 06:52:00,28.0,23.0,29.91,SSW,200,6.0,-999.0,79,-99.99,,,-99.99,,2013-02-05 12:52:00,
2013-02-05 07:01:00,28.0,23.0,29.92,SSW,210,6.0,-999.0,79,-99.99,,,-99.99,,2013-02-05 13:01:00,
2013-02-05 07:12:00,28.0,23.0,29.92,SSW,210,6.0,-999.0,79,-99.99,,,-99.99,,2013-02-05 13:12:00,
2013-02-05 07:21:00,28.0,23.0,29.91,SSW,200,8.0,-999.0,79,-99.99,,,-99.99,,2013-02-05 13:21:00,
2013-02-05 07:32:00,28.0,23.0,29.90,South,190,8.0,-999.0,79,-99.99,,,-99.99,,2013-02-05 13:32:00,
2013-02-05 07:42:00,28.0,23.0,29.90,South,190,8.0,-999.0,79,-99.99,,,-99.99,,2013-02-05 13:42:00,
2013-02-05 07:52:00,28.0,25.0,29.89,South,190,8.0,-999.0,86,-99.99,,,-99.99,,2013-02-05 13:52:00,
2013-02-05 08:01:00,28.0,25.0,29.90,South,190,9.0,-999.0,86,-99.99,,,-99.99,,2013-02-05 14:01:00,
2013-02-05 08:12:00,28.0,25.0,29.90,South,190,9.0,-999.0,86,-99.99,,,-99.99,,2013-02-05 14:12:00,
2013-02-05 08:21:00,28.0,25.0,29.90,SSW,200,10.0,-999.0,86,-99.99,,,-99.99,,2013-02-05 14:21:00,
2013-02-05 08:31:00,28.0,25.0,29.89,SSW,200,12.0,-999.0,86,-99.99,,,-99.99,,2013-02-05 14:31:00,
2013-02-05 08:42:00,30.0,25.0,29.90,SW,220,10.0,18.0,80,-99.99,,,-99.99,,2013-02-05 14:42:00,
2013-02-05 08:52:00,30.0,25.0,29.91,SW,220,8.0,-999.0,80,-99.99,,,-99.99,,2013-02-05 14:52:00,
2013-02-05 09:02:00,30.0,25.0,29.91,SW,220,10.0,-999.0,80,-99.99,,,-99.99,,2013-02-05 15:02:00,
2013-02-05 09:11:00,30.0,25.0,29.91,SW,220,10.0,-999.0,80,-99.99,,,-99.99,,2013-02-05 15:11:00,
2013-02-05 09:21:00,32.0,25.0,29.90,SW,220,9.0,-999.0,74,-99.99,,,-99.99,,2013-02-05 15:21:00,
2013-02-05 09:32:00,34.0,27.0,29.90,SW,230,12.0,-999.0,74,-99.99,,,-99.99,,2013-02-05 15:32:00,
2013-02-05 09:41:00,34.0,27.0,29.90,WSW,240,7.0,-999.0,74,-99.99,,,-99.99,,2013-02-05 15:41:00,
2013-02-05 09:52:00,34.0,27.0,29.90,SW,230,10.0,-999.0,74,-99.99,,,-99.99,,2013-02-05 15:52:00,
2013-02-05 10:01:00,36.0,27.0,29.90,WSW,240,12.0,16.0,69,-99.99,,,-99.99,,2013-02-05 16:01:00,
2013-02-05 10:11:00,36.0,27.0,29.90,WSW,240,12.0,16.0,69,-99.99,,,-99.99,,2013-02-05 16:11:00,
2013-02-05 10:22:00,37.0,27.0,29.91,WSW,240,13.0,17.0,64,-99.99,,,-99.99,,2013-02-05 16:22:00,
2013-02-05 10:32:00,37.0,27.0,29.90,WSW,240,14.0,23.0,64,-99.99,,,-99.99,,2013-02-05 16:32:00,
2013-02-05 10:42:00,37.0,27.0,29.90,WSW,240,14.0,23.0,64,-99.99,,,-99.99,,2013-02-05 16:42:00,
2013-02-05 10:52:00,37.0,27.0,29.90,WSW,250,10.0,20.0,64,-99.99,,,-99.99,,2013-02-05 16:52:00,
2013-02-05 11:01:00,39.0,27.0,29.90,WSW,250,12.0,20.0,60,-99.99,,,-99.99,,2013-02-05 17:01:00,
2013-02-05 11:11:00,39.0,27.0,29.90,WSW,250,12.0,20.0,60,-99.99,,,-99.99,,2013-02-05 17:11:00,
2013-02-05 11:22:00,41.0,28.0,29.89,WSW,250,15.0,20.0,60,-99.99,,,-99.99,,2013-02-05 17:22:00,
2013-02-05 11:32:00,41.0,28.0,29.89,West,260,17.0,22.0,60,-99.99,,,-99.99,,2013-02-05 17:32:00,
2013-02-05 11:42:00,41.0,28.0,29.89,WSW,250,15.0,-999.0,60,-99.99,,,-99.99,,2013-02-05 17:42:00,
2013-02-05 11:52:00,41.0,28.0,29.89,WSW,250,15.0,-999.0,60,-99.99,,,-99.99,,2013-02-05 17:52:00,
2013-02-05 12:02:00,41.0,28.0,29.89,WSW,250,15.0,-999.0,60,-99.99,,,-99.99,,2013-02-05 18:02:00,
2013-02-05 12:11:00,41.0,28.0,29.89,WSW,250,15.0,-999.0,60,-99.99,,,-99.99,,2013-02-05 18:11:00,
2013-02-05 12:21:00,41.0,28.0,29.89,WSW,250,15.0,-999.0,60,-99.99,,,-99.99,,2013-02-05 18:21:00,
2013-02-05 12:32:00,45.0,30.0,29.88,WSW,250,14.0,-999.0,56,-99.99,,,-99.99,,2013-02-05 18:32:00,
2013-02-05 12:42:00,45.0,30.0,29.88,WSW,250,14.0,-999.0,56,-99.99,,,-99.99,,2013-02-05 18:42:00,
2013-02-05 12:52:00,45.0,30.0,29.88,WSW,250,14.0,-999.0,56,-99.99,,,-99.99,,2013-02-05 18:52:00,
2013-02-05 13:02:00,46.0,30.0,29.89,WSW,250,13.0,20.0,52,-99.99,,,-99.99,,2013-02-05 19:02:00,
2013-02-05 13:11:00,46.0,30.0,29.89,WSW,250,13.0,20.0,52,-99.99,,,-99.99,,2013-02-05 19:11:00,
2013-02-05 13:21:00,46.0,30.0,29.89,West,260,14.0,-999.0,52,-99.99,,,-99.99,,2013-02-05 19:21:00,
2013-02-05 13:32:00,48.0,28.0,29.89,WNW,290,17.0,21.0,46,-99.99,,,-99.99,,2013-02-05 19:32:00,
2013-02-05 13:42:00,48.0,28.0,29.89,West,270,17.0,-999.0,46,-99.99,,,-99.99,,2013-02-05 19:42:00,
2013-02-05 13:52:00,48.0,28.0,29.90,West,270,14.0,20.0,46,-99.99,,,-99.99,,2013-02-05 19:52:00,
2013-02-05 14:01:00,48.0,30.0,29.90,West,280,16.0,20.0,49,-99.99,,,-99.99,,2013-02-05 20:01:00,
2013-02-05 14:11:00,48.0,30.0,29.90,West,280,16.0,20.0,49,-99.99,,,-99.99,,2013-02-05 20:11:00,
2013-02-05 14:21:00,50.0,28.0,29.90,WNW,290,12.0,-999.0,43,-99.99,,,-99.99,,2013-02-05 20:21:00,
2013-02-05 14:32:00,50.0,30.0,29.90,West,280,12.0,18.0,46,-99.99,,,-99.99,,2013-02-05 20:32:00,
2013-02-05 14:42:00,50.0,30.0,29.90,West,280,12.0,18.0,46,-99.99,,,-99.99,,2013-02-05 20:42:00,
2013-02-05 14:52:00,50.0,30.0,29.91,WNW,300,14.0,-999.0,46,-99.99,,,-99.99,,2013-02-05 20:52:00,
2013-02-05 15:02:00,50.0,30.0,29.92,WNW,300,15.0,21.0,46,-99.99,,,-99.99,,2013-02-05 21:02:00,
2013-02-05 15:11:00,50.0,30.0,29.92,WNW,300,15.0,21.0,46,-99.99,,,-99.99,,2013-02-05 21:11:00,
2013-02-05 15:22:00,50.0,30.0,29.93,WNW,290,14.0,-999.0,46,-99.99,,,-99.99,,2013-02-05 21:22:00,
2013-02-05 15:32:00,50.0,30.0,29.93,WNW,290,14.0,-999.0,46,-99.99,,,-99.99,,2013-02-05 21:32:00,
2013-02-05 15:42:00,50.0,30.0,29.93,WNW,290,14.0,-999.0,46,-99.99,,,-99.99,,2013-02-05 21:42:00,
2013-02-05 15:52:00,50.0,30.0,29.94,NW,310,9.0,-999.0,46,-99.99,,,-99.99,,2013-02-05 21:52:00,
2013-02-05 16:01:00,50.0,30.0,29.94,NW,310,9.0,-999.0,46,-99.99,,,-99.99,,2013-02-05 22:01:00,
2013-02-05 16:11:00,50.0,30.0,29.94,NW,310,9.0,-999.0,46,-99.99,,,-99.99,,2013-02-05 22:11:00,
2013-02-05 16:21:00,48.0,28.0,29.95,NW,310,13.0,16.0,46,-99.99,,,-99.99,,2013-02-05 22:21:00,
2013-02-05 16:32:00,48.0,28.0,29.96,NW,310,13.0,17.0,46,-99.99,,,-99.99,,2013-02-05 22:32:00,
2013-02-05 16:42:00,48.0,30.0,29.96,NW,310,12.0,-999.0,49,-99.99,,,-99.99,,2013-02-05 22:42:00,
2013-02-05 16:52:00,48.0,30.0,29.97,NW,320,10.0,16.0,49,-99.99,,,-99.99,,2013-02-05 22:52:00,
2013-02-05 17:02:00,46.0,30.0,29.97,NW,320,8.0,-999.0,52,-99.99,,,-99.99,,2013-02-05 23:02:00,
2013-02-05 17:11:00,46.0,30.0,29.97,NW,320,8.0,-999.0,52,-99.99,,,-99.99,,2013-02-05 23:11:00,
2013-02-05 17:21:00,45.0,30.0,29.98,NW,310,9.0,-999.0,56,-99.99,,,-99.99,,2013-02-05 23:21:00,
2013-02-05 17:32:00,45.0,30.0,29.98,NW,310,9.0,-999.0,56,-99.99,,,-99.99,,2013-02-05 23:32:00,
2013-02-05 17:42:00,43.0,28.0,29.98,NW,320,6.0,-999.0,56,-99.99,,,-99.99,,2013-02-05 23:42:00,
2013-02-05 17:52:00,41.0,28.0,30.00,NNW,330,6.0,-999.0,60,-99.99,,,-99.99,,2013-02-05 23:52:00,
2013-02-05 18:02:00,39.0,28.0,30.00,NW,320,6.0,-999.0,64,-99.99,,,-99.99,,2013-02-06 00:02:00,
2013-02-05 18:11:00,39.0,28.0,30.00,NW,320,6.0,-999.0,64,-99.99,,,-99.99,,2013-02-06 00:11:00,
2013-02-05 18:21:00,39.0,28.0,30.01,North,360,5.0,-999.0,64,-99.99,,,-99.99,,2013-02-06 00:21:00,
2013-02-05 18:32:00,41.0,28.0,30.02,North,350,7.0,-999.0,60,-99.99,,,-99.99,,2013-02-06 00:32:00,
2013-02-05 18:42:00,41.0,28.0,30.02,NNW,340,8.0,-999.0,60,-99.99,,,-99.99,,2013-02-06 00:42:00,
2013-02-05 18:52:00,41.0,28.0,30.02,NNW,340,8.0,-999.0,60,-99.99,,,-99.99,,2013-02-06 00:52:00,
2013-02-05 19:02:00,39.0,28.0,30.03,NNW,340,7.0,-999.0,64,-99.99,,,-99.99,,2013-02-06 01:02:00,
2013-02-05 19:11:00,39.0,28.0,30.03,NNW,340,7.0,-999.0,64,-99.99,,,-99.99,,2013-02-06 01:11:00,
2013-02-05 19:21:00,39.0,28.0,30.03,NNW,340,7.0,-999.0,64,-99.99,,,-99.99,,2013-02-06 01:21:00,
2013-02-05 19:32:00,39.0,28.0,30.05,NNW,340,7.0,-999.0,64,-99.99,,,-99.99,,2013-02-06 01:32:00,
2013-02-05 19:42:00,37.0,28.0,30.05,North,350,7.0,-999.0,69,-99.99,,,-99.99,,2013-02-06 01:42:00,
2013-02-05 19:53:00,37.0,28.0,30.05,North,350,6.0,-999.0,69,-99.99,,,-99.99,,2013-02-06 01:53:00,
2013-02-05 20:01:00,37.0,28.0,30.05,North,350,3.0,-999.0,69,-99.99,,,-99.99,,2013-02-06 02:01:00,
2013-02-05 20:11:00,37.0,28.0,30.05,North,350,3.0,-999.0,69,-99.99,,,-99.99,,2013-02-06 02:11:00,
2013-02-05 20:22:00,37.0,28.0,30.06,NNE,20,5.0,-999.0,69,-99.99,,,-99.99,,2013-02-06 02:22:00,
2013-02-05 20:32:00,37.0,28.0,30.06,NNE,20,5.0,-999.0,69,-99.99,,,-99.99,,2013-02-06 02:32:00,
2013-02-05 20:42:00,37.0,28.0,30.07,North,360,3.0,-999.0,69,-99.99,,,-99.99,,2013-02-06 02:42:00,
2013-02-05 20:52:00,37.0,28.0,30.08,North,360,5.0,-999.0,69,-99.99,,,-99.99,,2013-02-06 02:52:00,
2013-02-05 21:02:00,37.0,28.0,30.08,NNW,340,5.0,-999.0,69,-99.99,,,-99.99,,2013-02-06 03:02:00,
2013-02-05 21:12:00,37.0,28.0,30.08,NNW,340,5.0,-999.0,69,-99.99,,,-99.99,,2013-02-06 03:12:00,
2013-02-05 21:22:00,36.0,28.0,30.09,North,350,5.0,-999.0,74,-99.99,,,-99.99,,2013-02-06 03:22:00,
2013-02-05 21:32:00,36.0,28.0,30.09,North,350,5.0,-999.0,74,-99.99,,,-99.99,,2013-02-06 03:32:00,
2013-02-05 21:42:00,36.0,28.0,30.10,North,350,3.0,-999.0,74,-99.99,,,-99.99,,2013-02-06 03:42:00,
2013-02-05 21:53:00,36.0,28.0,30.10,NNW,340,5.0,-999.0,74,-99.99,,,-99.99,,2013-02-06 03:53:00,
2013-02-05 22:02:00,34.0,28.0,30.10,North,350,5.0,-999.0,80,-99.99,,,-99.99,,2013-02-06 04:02:00,
2013-02-05 22:11:00,34.0,28.0,30.10,North,350,5.0,-999.0,80,-99.99,,,-99.99,,2013-02-06 04:11:00,
2013-02-05 22:21:00,36.0,28.0,30.09,North,360,6.0,-999.0,74,-99.99,,,-99.99,,2013-02-06 04:21:00,
2013-02-05 22:32:00,36.0,28.0,30.09,North,360,5.0,-999.0,74,-99.99,,,-99.99,,2013-02-06 04:32:00,
2013-02-05 22:42:00,36.0,28.0,30.10,North,0,0.0,-999.0,74,-99.99,,,-99.99,,2013-02-06 04:42:00,
2013-02-05 22:52:00,36.0,28.0,30.11,North,0,0.0,-999.0,74,-99.99,,,-99.99,,2013-02-06 04:52:00,
2013-02-05 23:02:00,34.0,27.0,30.11,North,0,0.0,-999.0,74,-99.99,,,-99.99,,2013-02-06 05:02:00,
2013-02-05 23:12:00,34.0,27.0,30.11,North,0,0.0,-999.0,74,-99.99,,,-99.99,,2013-02-06 05:12:00,
2013-02-05 23:22:00,34.0,28.0,30.12,South,190,6.0,-999.0,80,-99.99,,,-99.99,,2013-02-06 05:22:00,
2013-02-05 23:31:00,30.0,25.0,30.12,South,190,6.0,-999.0,80,-99.99,,,-99.99,,2013-02-06 05:31:00,
2013-02-05 23:41:00,32.0,28.0,30.12,SSW,200,3.0,-999.0,86,-99.99,,,-99.99,,2013-02-06 05:41:00,
2013-02-05 23:53:00,32.0,27.0,30.12,SSW,200,6.0,-999.0,80,-99.99,,,-99.99,,2013-02-06 05:53:00,